Hillemann, Arkansas
Current Conditions -  °F | °C
As of 5:56 PM on Sunday 21 Dec 2014 (Local Time) from KM19 Reporting Station
Haze Haze  
Wind Chill: 42°   Ceiling: Unl
Heat Index: 45°   Visibility: 6mi
Dew Point: 42°   Wind: 6mph
Humidity: 89%   Direction: 60°ENE
Pressure: 30"   Gusts: NA
Location:  35.2139°N, 91.1509°W
Report Text: KM19 212356Z AUTO 06005KT 6SM BR SCT100 07/06 A3000 RMK AO2 58017 60000 T00720055 10105 20072 RAB20E43 P0000 SLP158
Loading
Personal Weather Stations






























Interactive Weather Map New forecast layout! Learn more

10-Day Weather Forecast

Advertisements
Track Severe Weather on mobile